createdAt,value
2023-05-01T00:01:38.572Z,9.14
2023-05-01T00:04:07.837Z,9.11
2023-05-01T00:06:34.143Z,9.08
2023-05-01T00:09:00.278Z,9.07
2023-05-01T00:11:26.441Z,9.05
2023-05-01T00:13:52.656Z,9.03
2023-05-01T00:16:18.860Z,9.01
2023-05-01T00:18:45.061Z,8.97
2023-05-01T00:21:16.272Z,8.96
2023-05-01T00:23:42.434Z,8.95
2023-05-01T00:26:08.651Z,8.94
2023-05-01T00:28:34.827Z,8.94
2023-05-01T00:31:00.982Z,8.94
2023-05-01T00:33:27.180Z,8.93
2023-05-01T00:35:53.334Z,8.92
2023-05-01T00:38:19.484Z,8.92
2023-05-01T00:40:45.631Z,8.94
2023-05-01T00:43:11.821Z,8.94
2023-05-01T00:45:38.079Z,8.95
2023-05-01T00:48:10.386Z,8.94
2023-05-01T00:50:36.607Z,8.95
2023-05-01T00:53:02.816Z,8.92
2023-05-01T00:55:28.996Z,8.93
2023-05-01T00:57:55.201Z,8.92
2023-05-01T01:00:21.358Z,8.91
2023-05-01T01:02:48.701Z,8.90
2023-05-01T01:05:14.946Z,8.90
2023-05-01T01:07:41.180Z,8.92
2023-05-01T01:10:07.385Z,8.90
2023-05-01T01:12:33.609Z,8.89
2023-05-01T01:14:59.879Z,8.93
2023-05-01T01:17:26.045Z,8.90
2023-05-01T01:19:55.698Z,8.92
2023-05-01T01:22:22.146Z,8.92
2023-05-01T01:24:48.349Z,8.91
2023-05-01T01:27:14.472Z,8.91
2023-05-01T01:29:40.626Z,8.90
2023-05-01T01:32:06.815Z,8.88
2023-05-01T01:34:32.963Z,8.90
2023-05-01T01:36:59.138Z,8.87
2023-05-01T01:39:26.620Z,8.87
2023-05-01T01:41:52.750Z,8.88
2023-05-01T01:44:18.877Z,8.84
2023-05-01T01:46:45.116Z,8.85
2023-05-01T01:49:11.354Z,8.93
2023-05-01T01:51:37.481Z,9.00
2023-05-01T01:54:03.653Z,9.01
2023-05-01T01:56:29.823Z,9.07
2023-05-01T01:58:58.749Z,9.07
2023-05-01T02:01:25.001Z,9.05
2023-05-01T02:03:51.214Z,9.05
2023-05-01T02:06:17.490Z,9.05
2023-05-01T02:08:43.674Z,9.09
2023-05-01T02:11:09.845Z,9.11
2023-05-01T02:13:36.039Z,9.11
2023-05-01T02:16:02.497Z,9.12
2023-05-01T02:18:28.670Z,9.13
2023-05-01T02:20:54.832Z,9.09
2023-05-01T02:23:20.964Z,9.05
2023-05-01T02:25:47.144Z,9.00
2023-05-01T02:28:13.335Z,8.97
2023-05-01T02:30:39.521Z,8.97
2023-05-01T02:33:05.754Z,8.92
2023-05-01T02:35:31.977Z,9.00
2023-05-01T02:37:58.137Z,8.97
2023-05-01T02:40:24.282Z,8.94
2023-05-01T02:42:50.460Z,8.93
2023-05-01T02:45:16.580Z,8.90
2023-05-01T02:47:42.734Z,8.91
2023-05-01T02:50:08.920Z,8.86
2023-05-01T02:52:35.097Z,8.87
2023-05-01T02:55:01.277Z,8.84
2023-05-01T02:57:27.615Z,8.87
2023-05-01T03:00:02.660Z,8.88
2023-05-01T03:02:28.793Z,8.90
2023-05-01T03:04:54.997Z,8.92
2023-05-01T03:07:21.226Z,8.99
2023-05-01T03:09:47.450Z,9.00
2023-05-01T03:12:13.626Z,9.03
2023-05-01T03:14:39.753Z,9.07
2023-05-01T03:17:08.328Z,9.08
2023-05-01T03:19:34.517Z,9.12
2023-05-01T03:22:00.664Z,9.14
2023-05-01T03:24:26.836Z,9.15
2023-05-01T03:26:52.982Z,9.16
2023-05-01T03:29:19.133Z,9.16
2023-05-01T03:31:45.362Z,9.20
2023-05-01T03:34:11.535Z,9.15
2023-05-01T03:36:37.657Z,9.13
2023-05-01T03:39:03.814Z,9.11
2023-05-01T03:41:29.940Z,9.12
2023-05-01T03:43:56.144Z,9.11
2023-05-01T03:46:22.409Z,9.13
2023-05-01T03:48:48.641Z,9.07
2023-05-01T03:51:14.847Z,9.05
2023-05-01T03:53:40.998Z,9.02
2023-05-01T03:56:07.166Z,8.98
2023-05-01T03:58:33.352Z,8.96
2023-05-01T04:01:01.330Z,8.95
2023-05-01T04:03:27.576Z,8.95
2023-05-01T04:05:53.806Z,8.93
2023-05-01T04:08:19.967Z,8.94
2023-05-01T04:10:46.088Z,8.89
2023-05-01T04:13:12.252Z,8.92
2023-05-01T04:15:38.456Z,8.92
2023-05-01T04:18:04.693Z,8.92
2023-05-01T04:20:30.950Z,8.95
2023-05-01T04:22:57.120Z,8.97
2023-05-01T04:25:23.340Z,9.00
2023-05-01T04:27:49.496Z,9.03
2023-05-01T04:30:17.196Z,9.07
2023-05-01T04:32:43.413Z,9.13
2023-05-01T04:35:09.678Z,9.16
2023-05-01T04:37:35.878Z,9.27
2023-05-01T04:40:02.099Z,9.44
2023-05-01T04:42:28.311Z,9.46
2023-05-01T04:44:54.491Z,9.60
2023-05-01T04:47:20.677Z,9.68
2023-05-01T04:49:46.877Z,9.72
2023-05-01T04:52:13.040Z,9.78
2023-05-01T04:54:39.195Z,9.76
2023-05-01T04:57:05.388Z,9.84
2023-05-01T04:59:31.505Z,9.87
2023-05-01T05:01:57.699Z,9.94
2023-05-01T05:04:26.440Z,10.02
2023-05-01T05:06:52.852Z,10.07
2023-05-01T05:09:20.147Z,10.09
2023-05-01T05:11:46.586Z,10.13
2023-05-01T05:14:15.793Z,10.15
2023-05-01T05:16:44.415Z,10.20
2023-05-01T05:19:10.735Z,10.31
2023-05-01T05:21:36.994Z,10.41
2023-05-01T05:24:03.108Z,10.53
2023-05-01T05:26:29.270Z,10.62
2023-05-01T05:28:58.246Z,10.66
2023-05-01T05:31:24.454Z,10.73
2023-05-01T05:33:50.627Z,10.90
2023-05-01T05:36:16.796Z,11.07
2023-05-01T05:38:46.025Z,11.22
2023-05-01T05:41:12.207Z,11.35
2023-05-01T05:43:38.305Z,11.56
2023-05-01T05:46:04.494Z,11.71
2023-05-01T05:48:30.747Z,11.93
2023-05-01T05:50:56.921Z,12.18
2023-05-01T05:53:25.566Z,12.45
2023-05-01T05:55:52.271Z,12.55
2023-05-01T05:58:18.502Z,12.82
2023-05-01T06:00:44.674Z,12.85
2023-05-01T06:03:20.921Z,13.03
2023-05-01T06:05:47.407Z,13.20
2023-05-01T06:08:13.644Z,13.34
2023-05-01T06:10:45.364Z,13.46
2023-05-01T06:13:14.024Z,13.56
2023-05-01T06:15:40.983Z,13.64
2023-05-01T06:18:07.340Z,13.68
2023-05-01T06:20:33.596Z,13.77
2023-05-01T06:22:59.728Z,13.66
2023-05-01T06:25:25.933Z,13.70
2023-05-01T06:27:52.149Z,13.81
2023-05-01T06:30:18.346Z,13.99
2023-05-01T06:32:44.532Z,14.13
2023-05-01T06:35:10.750Z,14.10
2023-05-01T06:37:39.981Z,14.22
2023-05-01T06:40:06.122Z,14.21
2023-05-01T06:42:32.266Z,14.31
2023-05-01T06:44:58.386Z,14.31
2023-05-01T06:47:24.614Z,14.43
2023-05-01T06:49:52.007Z,14.37
2023-05-01T06:52:18.238Z,14.39
2023-05-01T06:54:44.377Z,14.46
2023-05-01T06:57:10.526Z,14.56
2023-05-01T06:59:36.700Z,14.60
2023-05-01T07:02:04.067Z,14.74
2023-05-01T07:04:30.274Z,14.93
2023-05-01T07:06:57.379Z,15.11
2023-05-01T07:09:23.616Z,15.21
2023-05-01T07:11:49.793Z,15.19
2023-05-01T07:14:16.142Z,15.24
2023-05-01T07:16:42.377Z,15.10
2023-05-01T07:19:10.864Z,15.02
2023-05-01T07:21:37.060Z,14.93
2023-05-01T07:24:03.282Z,14.89
2023-05-01T07:26:29.505Z,14.67
2023-05-01T07:28:55.637Z,14.59
2023-05-01T07:31:21.843Z,14.62
2023-05-01T07:33:48.137Z,14.61
2023-05-01T07:36:14.352Z,14.59
2023-05-01T07:38:40.540Z,14.54
2023-05-01T07:41:06.757Z,14.63
2023-05-01T07:43:32.929Z,14.71
2023-05-01T07:45:59.142Z,14.71
2023-05-01T07:48:32.108Z,14.77
2023-05-01T07:50:58.303Z,14.84
2023-05-01T07:53:24.497Z,14.72
2023-05-01T07:55:50.677Z,14.83
2023-05-01T07:58:16.869Z,14.81
2023-05-01T08:00:43.035Z,14.91
2023-05-01T08:03:09.315Z,15.00
2023-05-01T08:05:35.721Z,15.05
2023-05-01T08:08:01.918Z,15.08
2023-05-01T08:10:28.113Z,15.07
2023-05-01T08:12:54.302Z,15.05
2023-05-01T08:15:20.437Z,15.00
2023-05-01T08:17:46.676Z,15.08
2023-05-01T08:20:12.899Z,15.00
2023-05-01T08:22:39.019Z,15.02
2023-05-01T08:25:11.303Z,15.17
2023-05-01T08:27:37.476Z,15.07
2023-05-01T08:30:03.688Z,15.25
2023-05-01T08:32:29.924Z,15.25
2023-05-01T08:34:56.176Z,15.37
2023-05-01T08:37:25.492Z,15.27
2023-05-01T08:39:51.657Z,15.29
2023-05-01T08:42:17.805Z,15.41
2023-05-01T08:44:43.971Z,15.44
2023-05-01T08:47:10.363Z,15.60
2023-05-01T08:49:36.932Z,15.42
2023-05-01T08:52:03.084Z,15.61
2023-05-01T08:54:29.245Z,15.54
2023-05-01T08:56:59.200Z,15.49
2023-05-01T08:59:25.347Z,15.88
2023-05-01T09:01:54.716Z,16.23
2023-05-01T09:04:23.972Z,16.17
2023-05-01T09:06:50.295Z,16.90
2023-05-01T09:09:16.505Z,16.76
2023-05-01T09:11:42.628Z,16.30
2023-05-01T09:14:08.837Z,16.56
2023-05-01T09:16:38.119Z,16.53
2023-05-01T09:19:04.336Z,16.47
2023-05-01T09:21:32.913Z,16.90
2023-05-01T09:23:59.137Z,17.08
2023-05-01T09:26:25.355Z,16.89
2023-05-01T09:28:51.513Z,16.85
2023-05-01T09:31:17.731Z,17.39
2023-05-01T09:33:43.949Z,17.54
2023-05-01T09:36:10.147Z,17.72
2023-05-01T09:38:36.314Z,17.49
2023-05-01T09:41:05.264Z,18.04
2023-05-01T09:43:31.429Z,18.23
2023-05-01T09:45:57.592Z,18.38
2023-05-01T09:48:23.746Z,18.22
2023-05-01T09:50:50.075Z,19.07
2023-05-01T09:53:16.266Z,18.69
2023-05-01T09:55:44.466Z,18.47
2023-05-01T09:58:10.625Z,19.59
2023-05-01T10:00:36.750Z,19.95
2023-05-01T10:03:03.053Z,20.57
2023-05-01T10:05:31.716Z,20.48
2023-05-01T10:07:57.939Z,20.23
2023-05-01T10:10:24.091Z,20.43
2023-05-01T10:12:50.264Z,20.61
2023-05-01T10:15:25.309Z,20.71
2023-05-01T10:17:52.769Z,20.63
2023-05-01T10:20:19.071Z,20.95
2023-05-01T10:22:48.227Z,20.98
2023-05-01T10:25:14.459Z,21.43
2023-05-01T10:27:40.628Z,22.47
2023-05-01T10:30:06.875Z,22.45
2023-05-01T10:32:33.068Z,22.50
2023-05-01T10:34:59.333Z,22.98
2023-05-01T10:37:28.620Z,23.10
2023-05-01T10:39:54.823Z,22.15
2023-05-01T10:42:21.174Z,21.56
2023-05-01T10:44:47.394Z,21.41
2023-05-01T10:47:13.527Z,21.38
2023-05-01T10:49:39.757Z,21.16
2023-05-01T10:52:06.029Z,21.08
2023-05-01T10:54:32.229Z,20.93
2023-05-01T10:56:58.437Z,21.69
2023-05-01T10:59:28.278Z,22.21
2023-05-01T11:01:54.657Z,21.64
2023-05-01T11:04:20.909Z,21.76
2023-05-01T11:06:47.074Z,20.55
2023-05-01T11:09:13.219Z,21.45
2023-05-01T11:11:39.448Z,22.21
2023-05-01T11:14:05.694Z,22.30
2023-05-01T11:16:31.881Z,22.30
2023-05-01T11:18:58.067Z,21.86
2023-05-01T11:21:24.244Z,21.05
2023-05-01T11:23:50.386Z,20.87
2023-05-01T11:26:16.562Z,20.88
2023-05-01T11:28:42.793Z,21.01
2023-05-01T11:31:11.946Z,20.94
2023-05-01T11:33:38.150Z,20.74
2023-05-01T11:36:04.369Z,20.71
2023-05-01T11:38:30.608Z,20.75
2023-05-01T11:40:56.825Z,20.56
2023-05-01T11:43:23.071Z,20.42
2023-05-01T11:45:49.307Z,20.70
2023-05-01T11:48:15.533Z,20.78
2023-05-01T11:50:41.824Z,21.05
2023-05-01T11:53:10.096Z,20.86
2023-05-01T11:55:36.316Z,21.60
2023-05-01T11:58:02.518Z,21.36
2023-05-01T12:00:28.743Z,21.32
2023-05-01T12:02:55.077Z,21.20
2023-05-01T12:05:22.510Z,21.29
2023-05-01T12:07:48.675Z,20.67
2023-05-01T12:10:14.830Z,20.80
2023-05-01T12:12:40.977Z,20.97
2023-05-01T12:15:07.137Z,20.92
2023-05-01T12:17:34.553Z,21.26
2023-05-01T12:20:00.769Z,21.47
2023-05-01T12:22:27.082Z,21.13
2023-05-01T12:24:53.280Z,21.23
2023-05-01T12:27:19.533Z,21.47
2023-05-01T12:29:45.678Z,21.31
2023-05-01T12:32:11.904Z,21.21
2023-05-01T12:34:38.212Z,21.39
2023-05-01T12:37:05.456Z,21.25
2023-05-01T12:39:31.690Z,21.39
2023-05-01T12:41:57.824Z,21.32
2023-05-01T12:44:24.024Z,21.21
2023-05-01T12:46:50.301Z,21.39
2023-05-01T12:49:16.640Z,21.68
2023-05-01T12:51:44.905Z,21.74
2023-05-01T12:54:11.110Z,22.20
2023-05-01T12:56:37.313Z,22.50
2023-05-01T12:59:03.473Z,22.18
2023-05-01T13:01:29.713Z,21.72
2023-05-01T13:03:55.938Z,21.40
2023-05-01T13:06:26.707Z,21.65
2023-05-01T13:08:52.886Z,22.13
2023-05-01T13:11:19.110Z,22.49
2023-05-01T13:13:45.312Z,22.37
2023-05-01T13:16:11.544Z,21.97
2023-05-01T13:18:37.762Z,21.67
2023-05-01T13:21:03.919Z,21.25
2023-05-01T13:23:30.079Z,21.00
2023-05-01T13:25:56.193Z,20.78
2023-05-01T13:28:22.392Z,20.49
2023-05-01T13:30:48.515Z,20.38
2023-05-01T13:33:14.799Z,20.45
2023-05-01T13:35:41.002Z,20.49
2023-05-01T13:38:07.148Z,20.56
2023-05-01T13:40:33.332Z,20.39
2023-05-01T13:42:59.481Z,20.73
2023-05-01T13:45:25.606Z,20.91
2023-05-01T13:47:51.897Z,21.00
2023-05-01T13:50:18.223Z,20.99
2023-05-01T13:52:44.407Z,21.13
2023-05-01T13:55:10.602Z,21.12
2023-05-01T13:57:36.723Z,20.84
2023-05-01T14:00:02.979Z,20.95
2023-05-01T14:02:29.294Z,21.09
2023-05-01T14:04:56.531Z,21.36
2023-05-01T14:07:24.427Z,21.37
2023-05-01T14:09:50.633Z,21.03
2023-05-01T14:12:16.821Z,20.87
2023-05-01T14:14:43.013Z,20.78
2023-05-01T14:17:09.271Z,21.28
2023-05-01T14:19:35.462Z,21.11
2023-05-01T14:22:01.696Z,21.35
2023-05-01T14:24:27.882Z,21.31
2023-05-01T14:26:54.107Z,21.06
2023-05-01T14:29:20.236Z,21.10
2023-05-01T14:31:46.661Z,21.78
2023-05-01T14:34:12.843Z,23.27
2023-05-01T14:36:38.996Z,23.74
2023-05-01T14:39:05.139Z,24.48
2023-05-01T14:41:31.299Z,24.49
2023-05-01T14:43:57.516Z,24.23
2023-05-01T14:46:23.748Z,23.45
2023-05-01T14:48:49.961Z,22.97
2023-05-01T14:51:16.088Z,23.65
2023-05-01T14:53:42.224Z,23.69
2023-05-01T14:56:08.452Z,24.02
2023-05-01T14:58:34.592Z,24.46
2023-05-01T15:01:00.756Z,24.56
2023-05-01T15:03:26.951Z,24.26
2023-05-01T15:05:53.265Z,24.78
2023-05-01T15:08:19.425Z,23.78
2023-05-01T15:10:45.588Z,22.96
2023-05-01T15:13:11.792Z,22.03
2023-05-01T15:15:37.935Z,21.58
2023-05-01T15:18:04.177Z,20.98
2023-05-01T15:20:30.384Z,20.74
2023-05-01T15:22:58.874Z,20.60
2023-05-01T15:25:25.043Z,20.54
2023-05-01T15:27:51.196Z,20.62
2023-05-01T15:30:17.395Z,20.66
2023-05-01T15:32:43.838Z,20.36
2023-05-01T15:35:10.302Z,20.41
2023-05-01T15:37:36.517Z,20.26
2023-05-01T15:40:03.151Z,20.07
2023-05-01T15:42:29.358Z,19.92
2023-05-01T15:44:55.565Z,19.70
2023-05-01T15:47:21.736Z,19.67
2023-05-01T15:49:47.936Z,19.58
2023-05-01T15:52:14.104Z,19.61
2023-05-01T15:54:40.258Z,19.54
2023-05-01T15:57:06.422Z,19.66
2023-05-01T15:59:32.560Z,19.76
2023-05-01T16:01:58.747Z,19.89
2023-05-01T16:04:24.993Z,19.89
2023-05-01T16:06:51.249Z,19.90
2023-05-01T16:09:17.591Z,20.27
2023-05-01T16:11:43.806Z,20.63
2023-05-01T16:14:14.224Z,21.09
2023-05-01T16:16:40.395Z,21.92
2023-05-01T16:19:06.605Z,22.00
2023-05-01T16:21:33.914Z,21.56
2023-05-01T16:24:00.122Z,21.62
2023-05-01T16:26:28.157Z,21.27
2023-05-01T16:28:54.687Z,20.82
2023-05-01T16:33:52.191Z,19.89
2023-05-01T16:36:18.328Z,19.51
2023-05-01T16:38:44.517Z,19.25
2023-05-01T16:41:10.718Z,19.12
2023-05-01T16:43:36.914Z,18.84
2023-05-01T16:46:03.128Z,18.63
2023-05-01T16:48:29.340Z,18.69
2023-05-01T16:50:55.501Z,18.45
2023-05-01T16:53:21.711Z,18.40
2023-05-01T16:55:48.121Z,18.29
2023-05-01T16:58:14.277Z,18.27
2023-05-01T17:00:40.427Z,18.17
2023-05-01T17:03:09.749Z,18.16
2023-05-01T17:05:36.022Z,18.17
2023-05-01T17:08:04.066Z,18.08
2023-05-01T17:10:30.305Z,18.07
2023-05-01T17:12:56.480Z,18.06
2023-05-01T17:15:22.655Z,18.05
2023-05-01T17:17:48.959Z,17.85
2023-05-01T17:20:15.162Z,17.92
2023-05-01T17:22:41.353Z,17.69
2023-05-01T17:25:07.558Z,17.54
2023-05-01T17:27:33.806Z,17.37
2023-05-01T17:30:00.138Z,17.16
2023-05-01T17:32:36.506Z,17.12
2023-05-01T17:35:03.706Z,17.08
2023-05-01T17:37:29.881Z,16.82
2023-05-01T17:39:56.111Z,16.72
2023-05-01T17:42:22.319Z,16.67
2023-05-01T17:44:48.514Z,16.60
2023-05-01T17:47:14.785Z,16.52
2023-05-01T17:49:40.973Z,16.51
2023-05-01T17:52:07.172Z,16.30
2023-05-01T17:54:33.380Z,16.12
2023-05-01T17:57:01.218Z,15.96
2023-05-01T17:59:27.363Z,15.92
2023-05-01T18:01:55.518Z,15.79
2023-05-01T18:04:21.925Z,15.69
2023-05-01T18:06:48.232Z,15.55
2023-05-01T18:09:14.484Z,15.44
2023-05-01T18:11:40.700Z,15.31
2023-05-01T18:14:06.841Z,15.22
2023-05-01T18:16:33.060Z,15.11
2023-05-01T18:18:59.338Z,14.95
2023-05-01T18:21:25.561Z,14.88
2023-05-01T18:23:51.778Z,14.78
2023-05-01T18:26:17.936Z,14.71
2023-05-01T18:28:44.075Z,14.64
2023-05-01T18:31:10.394Z,14.63
2023-05-01T18:33:36.665Z,14.52
2023-05-01T18:36:02.903Z,14.44
2023-05-01T18:38:31.956Z,14.32
2023-05-01T18:40:58.215Z,14.25
2023-05-01T18:43:24.394Z,14.26
2023-05-01T18:45:50.562Z,14.12
2023-05-01T18:48:16.842Z,14.06
2023-05-01T18:50:45.752Z,13.87
2023-05-01T18:53:15.446Z,13.76
2023-05-01T18:55:41.612Z,13.66
2023-05-01T18:58:07.828Z,13.57
2023-05-01T19:00:34.038Z,13.49
2023-05-01T19:03:00.326Z,13.38
2023-05-01T19:05:31.840Z,13.34
2023-05-01T19:07:58.093Z,13.29
2023-05-01T19:10:24.291Z,13.24
2023-05-01T19:12:55.659Z,13.28
2023-05-01T19:15:21.837Z,13.27
2023-05-01T19:17:48.094Z,13.18
2023-05-01T19:20:14.303Z,13.13
2023-05-01T19:22:40.578Z,13.10
2023-05-01T19:25:06.758Z,13.08
2023-05-01T19:27:32.996Z,13.04
2023-05-01T19:29:59.463Z,13.09
2023-05-01T19:32:26.224Z,13.02
2023-05-01T19:34:52.523Z,12.96
2023-05-01T19:37:22.468Z,12.96
2023-05-01T19:39:48.655Z,12.93
2023-05-01T19:42:14.797Z,12.90
2023-05-01T19:44:41.078Z,12.94
2023-05-01T19:47:07.299Z,12.96
2023-05-01T19:49:33.481Z,12.98
2023-05-01T19:51:59.733Z,12.98
2023-05-01T19:54:25.911Z,12.95
2023-05-01T19:56:52.134Z,13.01
2023-05-01T19:59:18.295Z,12.98
2023-05-01T20:01:44.618Z,12.99
2023-05-01T20:04:10.871Z,12.99
2023-05-01T20:06:37.057Z,13.00
2023-05-01T20:09:03.270Z,13.04
2023-05-01T20:11:29.454Z,13.07
2023-05-01T20:13:56.787Z,13.05
2023-05-01T20:16:25.384Z,13.04
2023-05-01T20:18:51.669Z,13.02
2023-05-01T20:21:17.875Z,13.01
2023-05-01T20:23:44.120Z,12.97
2023-05-01T20:26:10.361Z,12.94
2023-05-01T20:28:36.564Z,12.84
2023-05-01T20:31:02.738Z,12.76
2023-05-01T20:33:28.907Z,12.66
2023-05-01T20:35:55.122Z,12.59
2023-05-01T20:38:21.250Z,12.50
2023-05-01T20:40:47.421Z,12.42
2023-05-01T20:43:13.607Z,12.35
2023-05-01T20:45:39.805Z,12.27
2023-05-01T20:48:06.014Z,12.19
2023-05-01T20:50:32.236Z,12.10
2023-05-01T20:52:58.414Z,12.08
2023-05-01T20:55:24.607Z,12.06
2023-05-01T20:57:50.796Z,12.05
2023-05-01T21:00:16.990Z,12.05
2023-05-01T21:02:43.408Z,12.06
2023-05-01T21:05:09.693Z,12.09
2023-05-01T21:07:36.818Z,12.22
2023-05-01T21:10:02.997Z,12.24
2023-05-01T21:12:29.152Z,12.23
2023-05-01T21:14:55.329Z,12.14
2023-05-01T21:17:21.549Z,12.23
2023-05-01T21:19:47.775Z,12.23
2023-05-01T21:22:13.914Z,12.22
2023-05-01T21:24:40.095Z,12.19
2023-05-01T21:27:09.039Z,12.21
2023-05-01T21:29:35.198Z,12.22
2023-05-01T21:32:01.422Z,12.21
2023-05-01T21:34:27.584Z,12.22
2023-05-01T21:36:53.848Z,12.24
2023-05-01T21:39:23.087Z,12.25
2023-05-01T21:41:49.241Z,12.27
2023-05-01T21:44:15.444Z,12.23
2023-05-01T21:46:44.541Z,12.23
2023-05-01T21:49:10.794Z,12.25
2023-05-01T21:51:36.918Z,12.28
2023-05-01T21:54:03.123Z,12.27
2023-05-01T21:56:29.430Z,12.26
2023-05-01T21:58:55.608Z,12.32
2023-05-01T22:01:21.814Z,12.31
2023-05-01T22:03:48.064Z,12.29
2023-05-01T22:06:14.357Z,12.28
2023-05-01T22:08:45.532Z,12.29
2023-05-01T22:11:11.698Z,12.33
2023-05-01T22:13:37.848Z,12.30
2023-05-01T22:16:09.996Z,12.32
2023-05-01T22:18:36.269Z,12.39
2023-05-01T22:21:02.429Z,12.48
2023-05-01T22:23:28.562Z,12.49
2023-05-01T22:25:54.734Z,12.51
2023-05-01T22:28:21.579Z,12.52
2023-05-01T22:30:51.862Z,12.58
2023-05-01T22:33:18.040Z,12.59
2023-05-01T22:35:44.205Z,12.65
2023-05-01T22:38:10.334Z,12.71
2023-05-01T22:40:36.533Z,12.71
2023-05-01T22:43:02.654Z,12.69
2023-05-01T22:45:28.819Z,12.71
2023-05-01T22:47:58.246Z,12.71
2023-05-01T22:50:24.494Z,12.69
2023-05-01T22:52:50.701Z,12.68
2023-05-01T22:55:16.890Z,12.65
2023-05-01T22:57:43.013Z,12.65
2023-05-01T23:00:09.161Z,12.64
2023-05-01T23:02:35.345Z,12.62
2023-05-01T23:05:01.584Z,12.61
2023-05-01T23:07:29.487Z,12.63
2023-05-01T23:09:55.676Z,12.62
2023-05-01T23:12:21.821Z,12.63
2023-05-01T23:14:50.724Z,12.48
2023-05-01T23:17:16.923Z,12.55
2023-05-01T23:19:43.071Z,12.53
2023-05-01T23:22:09.260Z,12.53
2023-05-01T23:24:38.403Z,12.51
2023-05-01T23:27:07.315Z,12.48
2023-05-01T23:29:33.438Z,12.36
2023-05-01T23:31:59.645Z,12.45
2023-05-01T23:34:25.856Z,12.41
2023-05-01T23:36:52.066Z,12.38
2023-05-01T23:39:18.267Z,12.38
2023-05-01T23:41:44.438Z,12.36
2023-05-01T23:44:13.303Z,12.38
2023-05-01T23:46:39.562Z,12.37
2023-05-01T23:49:05.777Z,12.41
2023-05-01T23:51:34.928Z,12.40
2023-05-01T23:54:01.120Z,12.39
2023-05-01T23:56:27.356Z,12.44
2023-05-01T23:58:53.579Z,12.45
